createdAt,value
2022-10-28T00:00:30.546Z,7.30
2022-10-28T00:03:02.536Z,8.30
2022-10-28T00:05:35.263Z,8.67
2022-10-28T00:08:03.804Z,8.13
2022-10-28T00:10:32.765Z,8.27
2022-10-28T00:13:01.097Z,8.40
2022-10-28T00:15:49.999Z,8.20
2022-10-28T00:18:18.430Z,7.83
2022-10-28T00:20:47.768Z,8.40
2022-10-28T00:23:17.142Z,8.07
2022-10-28T00:25:47.342Z,8.57
2022-10-28T00:28:16.161Z,7.70
2022-10-28T00:30:46.931Z,8.23
2022-10-28T00:33:16.089Z,7.40
2022-10-28T00:35:45.437Z,6.63
2022-10-28T00:38:14.147Z,7.30
2022-10-28T00:40:42.551Z,6.63
2022-10-28T00:43:19.178Z,6.87
2022-10-28T00:45:49.661Z,7.10
2022-10-28T00:48:18.771Z,6.73
2022-10-28T00:50:52.744Z,6.47
2022-10-28T00:53:26.691Z,6.50
2022-10-28T00:56:01.647Z,6.07
2022-10-28T00:58:31.951Z,6.43
2022-10-28T01:01:02.351Z,6.03
2022-10-28T01:03:37.539Z,6.23
2022-10-28T01:06:07.848Z,5.70
2022-10-28T01:08:40.422Z,5.90
2022-10-28T01:11:31.015Z,5.67
2022-10-28T01:14:19.052Z,6.63
2022-10-28T01:17:01.852Z,6.27
2022-10-28T01:20:00.325Z,5.70
2022-10-28T01:22:35.386Z,6.40
2022-10-28T01:25:43.368Z,5.50
2022-10-28T01:28:38.273Z,5.87
2022-10-28T01:31:18.957Z,5.70
2022-10-28T01:33:55.883Z,5.73
2022-10-28T01:36:35.595Z,5.03
2022-10-28T01:39:15.585Z,5.43
2022-10-28T01:41:51.635Z,5.20
2022-10-28T01:44:28.114Z,5.17
2022-10-28T01:47:05.580Z,4.37
2022-10-28T01:49:42.971Z,5.07
2022-10-28T01:52:16.619Z,4.57
2022-10-28T01:54:50.827Z,5.07
2022-10-28T01:57:23.664Z,4.37
2022-10-28T01:59:53.662Z,5.17
2022-10-28T02:02:23.999Z,4.57
2022-10-28T02:04:53.445Z,4.33
2022-10-28T02:07:22.602Z,4.33
2022-10-28T02:10:04.414Z,4.30
2022-10-28T02:12:36.503Z,4.63
2022-10-28T02:15:33.846Z,3.90
2022-10-28T02:18:22.347Z,4.23
2022-10-28T02:20:55.175Z,4.50
2022-10-28T02:23:30.478Z,4.40
2022-10-28T02:26:04.397Z,4.60
2022-10-28T02:28:43.683Z,4.50
2022-10-28T02:31:23.184Z,5.17
2022-10-28T02:33:57.489Z,4.83
2022-10-28T02:36:29.744Z,4.83
2022-10-28T02:39:02.136Z,4.77
2022-10-28T02:41:36.889Z,4.73
2022-10-28T02:44:11.874Z,5.40
2022-10-28T02:46:44.269Z,4.60
2022-10-28T02:49:16.963Z,4.20
2022-10-28T02:51:48.323Z,4.13
2022-10-28T02:54:18.996Z,4.37
2022-10-28T02:56:53.362Z,4.30
2022-10-28T02:59:21.998Z,3.57
2022-10-28T03:01:50.460Z,4.07
2022-10-28T03:04:20.129Z,3.53
2022-10-28T03:06:48.853Z,4.50
2022-10-28T03:09:20.191Z,4.27
2022-10-28T03:11:48.456Z,4.57
2022-10-28T03:14:16.674Z,4.57
2022-10-28T03:16:44.847Z,4.40
2022-10-28T03:19:12.972Z,3.97
2022-10-28T03:21:42.921Z,4.93
2022-10-28T03:24:11.196Z,4.77
2022-10-28T03:26:39.497Z,5.97
2022-10-28T03:29:07.978Z,5.27
2022-10-28T03:31:37.069Z,5.53
2022-10-28T03:34:07.788Z,6.20
2022-10-28T03:36:36.782Z,6.77
2022-10-28T03:39:07.329Z,7.23
2022-10-28T03:41:36.993Z,6.33
2022-10-28T03:44:05.238Z,6.67
2022-10-28T03:46:35.240Z,6.07
2022-10-28T03:49:05.386Z,7.37
2022-10-28T03:52:12.160Z,6.93
2022-10-28T03:54:41.997Z,7.13
2022-10-28T03:57:10.217Z,5.97
2022-10-28T03:59:39.253Z,6.10
2022-10-28T04:02:08.095Z,6.23
2022-10-28T04:04:36.460Z,7.10
2022-10-28T04:07:04.886Z,7.33
2022-10-28T04:09:33.147Z,7.10
2022-10-28T04:12:03.054Z,7.57
2022-10-28T04:14:31.750Z,6.33
2022-10-28T04:16:59.971Z,7.60
2022-10-28T04:19:29.128Z,6.73
2022-10-28T04:21:57.504Z,6.27
2022-10-28T04:24:28.821Z,6.43
2022-10-28T04:26:57.279Z,6.60
2022-10-28T04:29:28.371Z,6.60
2022-10-28T04:31:56.768Z,7.63
2022-10-28T04:34:25.346Z,6.23
2022-10-28T04:36:53.987Z,6.90
2022-10-28T04:39:22.276Z,6.33
2022-10-28T04:41:50.872Z,6.93
2022-10-28T04:44:19.338Z,7.37
2022-10-28T04:46:49.065Z,6.53
2022-10-28T04:49:17.602Z,6.50
2022-10-28T04:54:15.010Z,6.10
2022-10-28T04:56:43.180Z,7.87
2022-10-28T04:59:11.357Z,7.67
2022-10-28T05:01:39.638Z,7.67
2022-10-28T05:04:09.545Z,6.77
2022-10-28T05:06:37.874Z,7.37
2022-10-28T05:09:06.001Z,7.00
2022-10-28T05:11:36.921Z,7.83
2022-10-28T05:14:06.025Z,7.30
2022-10-28T05:16:34.966Z,6.97
2022-10-28T05:19:03.309Z,7.20
2022-10-28T05:21:36.668Z,6.63
2022-10-28T05:24:06.429Z,6.47
2022-10-28T05:26:34.807Z,7.17
2022-10-28T05:29:08.140Z,7.67
2022-10-28T05:31:38.678Z,7.50
2022-10-28T05:34:07.787Z,7.00
2022-10-28T05:36:38.672Z,7.10
2022-10-28T05:39:18.285Z,6.70
2022-10-28T05:41:46.465Z,6.60
2022-10-28T05:44:14.867Z,6.70
2022-10-28T05:46:43.271Z,7.93
2022-10-28T05:49:11.501Z,7.03
2022-10-28T05:51:41.411Z,6.93
2022-10-28T05:54:09.814Z,7.33
2022-10-28T05:56:37.921Z,6.70
2022-10-28T05:59:06.335Z,6.37
2022-10-28T06:01:34.966Z,6.57
2022-10-28T06:04:04.943Z,7.80
2022-10-28T06:06:33.371Z,6.93
2022-10-28T06:09:03.159Z,7.20
2022-10-28T06:11:30.175Z,7.33
2022-10-28T06:13:58.431Z,7.17
2022-10-28T06:16:29.814Z,7.80
2022-10-28T06:18:58.022Z,7.97
2022-10-28T06:21:26.350Z,6.83
2022-10-28T06:23:54.763Z,7.33
2022-10-28T06:26:24.444Z,7.53
2022-10-28T06:28:52.571Z,7.77
2022-10-28T06:31:21.355Z,7.80
2022-10-28T06:33:49.496Z,7.37
2022-10-28T06:36:17.718Z,8.07
2022-10-28T06:38:46.247Z,7.40
2022-10-28T06:41:14.636Z,7.40
2022-10-28T06:43:44.659Z,7.83
2022-10-28T06:46:12.925Z,6.80
2022-10-28T06:48:45.627Z,6.97
2022-10-28T06:51:14.311Z,7.80
2022-10-28T06:53:42.507Z,7.70
2022-10-28T06:56:11.389Z,7.23
2022-10-28T06:58:42.768Z,7.57
2022-10-28T07:01:12.547Z,7.70
2022-10-28T07:03:40.924Z,8.07
2022-10-28T07:06:09.344Z,7.20
2022-10-28T07:08:37.965Z,7.57
2022-10-28T07:11:06.999Z,7.47
2022-10-28T07:13:35.901Z,7.50
2022-10-28T07:16:05.277Z,6.97
2022-10-28T07:18:35.127Z,7.47
2022-10-28T07:21:07.850Z,7.43
2022-10-28T07:23:36.285Z,7.30
2022-10-28T07:26:04.781Z,7.03
2022-10-28T07:28:33.460Z,7.13
2022-10-28T07:31:03.151Z,6.53
2022-10-28T07:33:31.622Z,7.20
2022-10-28T07:36:04.575Z,7.60
2022-10-28T07:38:32.848Z,7.13
2022-10-28T07:41:05.447Z,7.03
2022-10-28T07:43:38.875Z,7.23
2022-10-28T07:46:08.266Z,6.63
2022-10-28T07:48:37.840Z,6.80
2022-10-28T07:51:09.202Z,6.80
2022-10-28T07:53:37.592Z,7.70
2022-10-28T07:56:09.889Z,6.67
2022-10-28T07:58:38.267Z,5.77
2022-10-28T08:01:09.072Z,6.10
2022-10-28T08:03:38.929Z,7.00
2022-10-28T08:06:11.713Z,5.63
2022-10-28T08:08:40.973Z,6.17
2022-10-28T08:11:13.393Z,5.90
2022-10-28T08:13:42.115Z,6.17
2022-10-28T08:16:10.856Z,12.97
2022-10-28T08:18:40.718Z,7.20
2022-10-28T08:21:11.897Z,6.40
2022-10-28T08:23:41.570Z,5.07
2022-10-28T08:26:09.878Z,5.03
2022-10-28T08:28:38.122Z,6.13
2022-10-28T08:31:09.677Z,5.40
2022-10-28T08:33:38.341Z,6.13
2022-10-28T08:36:07.274Z,6.30
2022-10-28T08:38:38.769Z,5.47
2022-10-28T08:41:21.430Z,5.53
2022-10-28T08:44:02.551Z,5.83
2022-10-28T08:46:47.146Z,5.50
2022-10-28T08:49:19.594Z,5.43
2022-10-28T08:51:53.385Z,5.30
2022-10-28T08:54:26.948Z,5.80
2022-10-28T08:56:56.286Z,5.37
2022-10-28T08:59:30.918Z,4.97
2022-10-28T09:02:02.672Z,5.23
2022-10-28T09:04:44.149Z,5.40
2022-10-28T09:07:17.743Z,4.70
2022-10-28T09:09:47.842Z,4.63
2022-10-28T09:12:52.795Z,5.20
2022-10-28T09:15:35.336Z,5.20
2022-10-28T09:18:17.961Z,5.13
2022-10-28T09:20:53.381Z,5.23
2022-10-28T09:23:25.231Z,5.10
2022-10-28T09:26:08.016Z,5.40
2022-10-28T09:28:50.329Z,6.10
2022-10-28T09:32:29.861Z,5.50
2022-10-28T09:35:17.949Z,5.73
2022-10-28T09:37:52.264Z,5.60
2022-10-28T09:40:24.778Z,5.43
2022-10-28T09:43:02.357Z,5.80
2022-10-28T09:45:33.825Z,5.90
2022-10-28T09:48:11.053Z,6.57
2022-10-28T09:50:39.908Z,5.63
2022-10-28T09:53:16.053Z,5.47
2022-10-28T09:55:44.590Z,5.93
2022-10-28T09:58:14.740Z,6.13
2022-10-28T10:00:43.447Z,5.90
2022-10-28T10:03:11.990Z,4.83
2022-10-28T10:05:44.141Z,4.73
2022-10-28T10:08:16.752Z,4.97
2022-10-28T10:10:53.172Z,4.60
2022-10-28T10:13:29.062Z,4.90
2022-10-28T10:16:09.891Z,4.70
2022-10-28T10:18:47.847Z,4.50
2022-10-28T10:21:23.893Z,4.73
2022-10-28T10:23:57.601Z,5.17
2022-10-28T10:26:26.066Z,5.00
2022-10-28T10:29:04.512Z,4.05
2022-10-28T10:31:32.870Z,4.88
2022-10-28T10:34:01.097Z,4.20
2022-10-28T10:36:31.631Z,5.15
2022-10-28T10:39:01.833Z,4.55
2022-10-28T10:41:37.144Z,3.97
2022-10-28T10:44:31.040Z,4.63
2022-10-28T10:47:22.762Z,3.88
2022-10-28T10:49:52.173Z,4.30
2022-10-28T10:52:26.199Z,4.80
2022-10-28T10:55:07.629Z,3.92
2022-10-28T10:57:36.343Z,4.03
2022-10-28T11:00:07.258Z,3.95
2022-10-28T11:02:39.793Z,4.05
2022-10-28T11:05:10.788Z,4.13
2022-10-28T11:07:41.331Z,4.57
2022-10-28T11:10:25.131Z,4.03
2022-10-28T11:12:55.558Z,4.38
2022-10-28T11:15:29.848Z,4.20
2022-10-28T11:18:00.540Z,4.22
2022-10-28T11:20:31.462Z,3.90
2022-10-28T11:23:15.385Z,4.00
2022-10-28T11:25:46.976Z,3.92
2022-10-28T11:28:33.565Z,3.78
2022-10-28T11:31:18.927Z,3.80
2022-10-28T11:33:54.833Z,3.45
2022-10-28T11:36:30.428Z,4.63
2022-10-28T11:39:16.743Z,4.15
2022-10-28T11:41:58.188Z,4.20
2022-10-28T11:44:44.455Z,4.20
2022-10-28T11:47:38.205Z,5.00
2022-10-28T11:50:26.902Z,4.30
2022-10-28T11:53:21.570Z,4.63
2022-10-28T11:55:57.413Z,5.00
2022-10-28T11:58:34.187Z,4.10
2022-10-28T12:01:12.446Z,4.22
2022-10-28T12:04:12.655Z,4.40
2022-10-28T12:07:02.692Z,4.35
2022-10-28T12:09:43.890Z,3.85
2022-10-28T12:12:21.099Z,3.78
2022-10-28T12:14:59.796Z,4.28
2022-10-28T12:17:35.160Z,4.00
2022-10-28T12:20:12.530Z,4.07
2022-10-28T12:22:49.372Z,4.50
2022-10-28T12:25:24.082Z,4.40
2022-10-28T12:27:57.381Z,5.13
2022-10-28T12:30:28.621Z,4.22
2022-10-28T12:33:01.146Z,4.25
2022-10-28T12:35:41.006Z,4.40
2022-10-28T12:38:17.858Z,4.30
2022-10-28T12:40:50.511Z,4.30
2022-10-28T12:43:26.033Z,5.03
2022-10-28T12:45:57.011Z,3.85
2022-10-28T12:48:33.461Z,4.68
2022-10-28T12:51:12.240Z,4.57
2022-10-28T12:53:48.158Z,3.85
2022-10-28T12:56:20.009Z,4.68
2022-10-28T12:58:59.832Z,4.47
2022-10-28T13:01:32.625Z,5.03
2022-10-28T13:04:01.909Z,4.50
2022-10-28T13:06:54.388Z,4.35
2022-10-28T13:09:41.081Z,4.22
2022-10-28T13:12:40.964Z,4.40
2022-10-28T13:15:44.877Z,4.53
2022-10-28T13:18:34.791Z,3.75
2022-10-28T13:21:12.244Z,4.15
2022-10-28T13:23:50.446Z,5.20
2022-10-28T13:26:25.652Z,4.05
2022-10-28T13:28:56.509Z,4.97
2022-10-28T13:31:25.320Z,5.00
2022-10-28T13:33:57.012Z,4.13
2022-10-28T13:36:28.309Z,4.93
2022-10-28T13:39:01.271Z,4.05
2022-10-28T13:41:42.137Z,3.90
2022-10-28T13:44:28.756Z,4.35
2022-10-28T13:47:26.328Z,4.68
2022-10-28T13:50:34.092Z,3.88
2022-10-28T13:53:45.804Z,3.85
2022-10-28T13:56:24.395Z,3.45
2022-10-28T13:58:55.557Z,4.55
2022-10-28T14:02:07.500Z,3.78
2022-10-28T14:04:39.007Z,4.03
2022-10-28T14:07:20.284Z,3.65
2022-10-28T14:09:51.261Z,4.10
2022-10-28T14:12:41.752Z,3.90
2022-10-28T14:15:26.523Z,4.38
2022-10-28T14:18:09.749Z,3.75
2022-10-28T14:20:54.990Z,4.05
2022-10-28T14:24:08.999Z,3.70
2022-10-28T14:27:31.063Z,4.07
2022-10-28T14:30:36.251Z,4.28
2022-10-28T14:33:21.429Z,4.13
2022-10-28T14:35:59.626Z,4.20
2022-10-28T14:38:50.855Z,3.90
2022-10-28T14:41:45.204Z,4.22
2022-10-28T14:44:27.381Z,4.13
2022-10-28T14:47:13.413Z,3.90
2022-10-28T14:49:43.080Z,4.38
2022-10-28T14:52:20.197Z,4.25
2022-10-28T14:54:51.351Z,4.88
2022-10-28T14:57:22.366Z,5.00
2022-10-28T14:59:52.410Z,4.50
2022-10-28T15:02:24.968Z,4.10
2022-10-28T15:05:03.244Z,3.97
2022-10-28T15:07:37.070Z,3.70
2022-10-28T15:10:15.951Z,4.47
2022-10-28T15:12:46.380Z,4.45
2022-10-28T15:15:20.378Z,6.43
2022-10-28T15:17:50.194Z,5.18
2022-10-28T15:20:24.027Z,4.25
2022-10-28T15:22:52.834Z,3.90
2022-10-28T15:25:22.863Z,4.50
2022-10-28T15:27:53.725Z,4.50
2022-10-28T15:30:24.619Z,4.43
2022-10-28T15:32:55.860Z,3.45
2022-10-28T15:35:41.297Z,4.47
2022-10-28T15:38:39.580Z,5.30
2022-10-28T15:41:41.978Z,4.60
2022-10-28T15:44:26.520Z,3.95
2022-10-28T15:46:56.413Z,3.90
2022-10-28T15:49:35.851Z,4.38
2022-10-28T15:52:32.465Z,4.75
2022-10-28T15:55:02.032Z,4.65
2022-10-28T15:57:31.900Z,0.28
2022-10-28T16:00:21.791Z,0.43
2022-10-28T16:03:01.358Z,4.45
2022-10-28T16:05:56.424Z,4.32
2022-10-28T16:08:30.540Z,4.38
2022-10-28T16:11:01.699Z,3.95
2022-10-28T16:13:33.761Z,5.03
2022-10-28T16:16:09.664Z,4.25
2022-10-28T16:18:43.380Z,4.40
2022-10-28T16:21:19.725Z,4.78
2022-10-28T16:23:52.230Z,4.25
2022-10-28T16:26:20.443Z,4.07
2022-10-28T16:28:48.611Z,4.78
2022-10-28T16:31:18.724Z,4.88
2022-10-28T16:33:47.542Z,4.00
2022-10-28T16:36:20.346Z,4.30
2022-10-28T16:38:48.830Z,4.25
2022-10-28T16:41:19.871Z,4.22
2022-10-28T16:43:48.440Z,4.82
2022-10-28T16:46:19.486Z,4.63
2022-10-28T16:48:47.751Z,4.70
2022-10-28T16:51:19.434Z,4.25
2022-10-28T16:53:49.718Z,4.35
2022-10-28T16:56:19.107Z,3.72
2022-10-28T16:58:47.335Z,4.28
2022-10-28T17:01:19.833Z,4.30
2022-10-28T17:03:48.217Z,4.72
2022-10-28T17:06:17.780Z,4.38
2022-10-28T17:09:02.509Z,4.88
2022-10-28T17:11:32.603Z,5.07
2022-10-28T17:14:00.768Z,4.53
2022-10-28T17:16:28.985Z,4.50
2022-10-28T17:18:57.365Z,4.20
2022-10-28T17:21:27.161Z,4.32
2022-10-28T17:23:55.783Z,4.87
2022-10-28T17:26:24.024Z,4.23
2022-10-28T17:28:53.351Z,4.30
2022-10-28T17:31:24.925Z,4.30
2022-10-28T17:33:55.699Z,4.73
2022-10-28T17:36:24.716Z,4.47
2022-10-28T17:38:55.380Z,4.27
2022-10-28T17:41:24.181Z,4.30
2022-10-28T17:43:54.882Z,4.20
2022-10-28T17:46:26.038Z,4.10
2022-10-28T17:48:57.661Z,3.70
2022-10-28T17:51:26.367Z,3.90
2022-10-28T17:53:56.963Z,3.60
2022-10-28T17:56:25.497Z,4.57
2022-10-28T17:58:54.365Z,3.73
2022-10-28T18:01:24.478Z,3.93
2022-10-28T18:03:53.066Z,4.07
2022-10-28T18:06:24.056Z,3.90
2022-10-28T18:08:52.674Z,3.90
2022-10-28T18:11:22.530Z,3.70
2022-10-28T18:13:52.898Z,3.67
2022-10-28T18:16:27.067Z,4.13
2022-10-28T18:18:57.596Z,3.88
2022-10-28T18:21:29.286Z,4.03
2022-10-28T18:24:04.170Z,3.88
2022-10-28T18:26:38.360Z,3.57
2022-10-28T18:29:13.510Z,3.90
2022-10-28T18:31:45.085Z,4.67
2022-10-28T18:34:18.861Z,4.23
2022-10-28T18:36:51.962Z,3.83
2022-10-28T18:39:25.177Z,4.93
2022-10-28T18:42:00.727Z,3.93
2022-10-28T18:45:06.494Z,4.37
2022-10-28T18:47:50.402Z,3.97
2022-10-28T18:50:57.104Z,6.07
2022-10-28T18:53:30.382Z,4.90
2022-10-28T18:56:11.019Z,3.80
2022-10-28T18:58:43.249Z,4.67
2022-10-28T19:01:30.928Z,4.30
2022-10-28T19:04:05.560Z,4.47
2022-10-28T19:09:46.340Z,4.33
2022-10-28T19:12:15.458Z,4.47
2022-10-28T19:14:44.711Z,4.00
2022-10-28T19:17:14.391Z,3.90
2022-10-28T19:19:47.790Z,4.43
2022-10-28T19:22:18.589Z,3.80
2022-10-28T19:24:57.450Z,4.80
2022-10-28T19:27:26.987Z,4.00
2022-10-28T19:30:02.447Z,4.20
2022-10-28T19:35:16.772Z,4.30
2022-10-28T19:37:44.855Z,4.40
2022-10-28T19:40:14.443Z,4.53
2022-10-28T19:42:42.566Z,4.37
2022-10-28T19:45:11.329Z,4.43
2022-10-28T19:47:39.418Z,4.33
2022-10-28T19:50:08.831Z,4.40
2022-10-28T19:52:36.918Z,4.73
2022-10-28T19:55:05.642Z,4.27
2022-10-28T19:57:35.401Z,4.00
2022-10-28T20:00:03.571Z,4.50
2022-10-28T20:02:31.731Z,4.27
2022-10-28T20:04:59.908Z,4.87
2022-10-28T20:07:27.950Z,3.67
2022-10-28T20:12:25.220Z,3.77
2022-10-28T20:14:54.673Z,4.63
2022-10-28T20:17:22.833Z,4.23
2022-10-28T20:19:50.920Z,4.93
2022-10-28T20:22:19.137Z,4.70
2022-10-28T20:24:47.225Z,4.07
2022-10-28T20:27:15.312Z,3.70
2022-10-28T20:29:43.490Z,4.43
2022-10-28T20:32:12.949Z,3.70
2022-10-28T20:34:41.052Z,4.17
2022-10-28T20:37:09.123Z,4.07
2022-10-28T20:39:37.305Z,4.80
2022-10-28T20:42:05.705Z,3.60
2022-10-28T20:44:33.833Z,4.33
2022-10-28T20:47:02.134Z,4.90
2022-10-28T20:49:31.667Z,4.37
2022-10-28T20:52:00.854Z,4.10
2022-10-28T20:54:28.964Z,4.50
2022-10-28T20:56:57.165Z,4.17
2022-10-28T20:59:25.401Z,4.30
2022-10-28T21:01:53.722Z,4.37
2022-10-28T21:04:22.053Z,4.13
2022-10-28T21:06:51.599Z,3.90
2022-10-28T21:09:19.732Z,4.73
2022-10-28T21:11:48.152Z,4.20
2022-10-28T21:14:16.291Z,4.60
2022-10-28T21:16:44.502Z,4.97
2022-10-28T21:19:12.678Z,4.10
2022-10-28T21:21:40.816Z,4.20
2022-10-28T21:24:11.009Z,4.27
2022-10-28T21:26:39.698Z,4.10
2022-10-28T21:29:07.939Z,4.13
2022-10-28T21:31:36.097Z,3.87
2022-10-28T21:34:07.384Z,5.00
2022-10-28T21:36:36.599Z,4.30
2022-10-28T21:39:04.801Z,4.10
2022-10-28T21:41:34.367Z,3.97
2022-10-28T21:44:06.431Z,4.50
2022-10-28T21:46:34.580Z,4.23
2022-10-28T21:49:02.668Z,5.30
2022-10-28T21:51:30.770Z,4.30
2022-10-28T21:53:58.809Z,4.40
2022-10-28T21:56:27.490Z,4.23
2022-10-28T21:58:56.913Z,4.50
2022-10-28T22:01:25.957Z,4.10
2022-10-28T22:03:56.136Z,4.67
2022-10-28T22:06:24.449Z,4.67
2022-10-28T22:08:54.194Z,4.87
2022-10-28T22:11:24.602Z,4.27
2022-10-28T22:13:59.247Z,4.10
2022-10-28T22:16:28.857Z,5.07
2022-10-28T22:18:58.596Z,4.40
2022-10-28T22:21:28.524Z,4.87
2022-10-28T22:23:56.605Z,4.90
2022-10-28T22:26:26.799Z,4.67
2022-10-28T22:28:55.682Z,5.03
2022-10-28T22:31:27.783Z,5.07
2022-10-28T22:33:57.024Z,5.20
2022-10-28T22:36:27.886Z,5.30
2022-10-28T22:38:56.135Z,4.90
2022-10-28T22:41:25.719Z,5.23
2022-10-28T22:43:55.704Z,5.47
2022-10-28T22:46:27.082Z,5.23
2022-10-28T22:48:55.769Z,5.43
2022-10-28T22:51:24.416Z,4.47
2022-10-28T22:53:52.651Z,5.47
2022-10-28T22:56:26.060Z,4.90
2022-10-28T22:58:55.893Z,5.00
2022-10-28T23:01:29.429Z,5.40
2022-10-28T23:03:57.955Z,4.40
2022-10-28T23:06:27.765Z,4.33
2022-10-28T23:08:56.131Z,5.00
2022-10-28T23:11:24.821Z,4.43
2022-10-28T23:13:53.591Z,5.57
2022-10-28T23:16:22.454Z,5.50
2022-10-28T23:18:52.930Z,4.50
2022-10-28T23:21:22.538Z,5.70
2022-10-28T23:23:54.407Z,4.63
2022-10-28T23:26:23.251Z,4.77
2022-10-28T23:28:52.971Z,5.20
2022-10-28T23:31:22.483Z,5.03
2022-10-28T23:33:53.403Z,4.47
2022-10-28T23:36:21.843Z,5.07
2022-10-28T23:38:50.030Z,4.87
2022-10-28T23:41:19.358Z,5.17
2022-10-28T23:43:48.823Z,4.23
2022-10-28T23:46:17.407Z,4.67
2022-10-28T23:48:45.496Z,4.93
2022-10-28T23:51:15.067Z,4.30
2022-10-28T23:53:43.261Z,4.13
2022-10-28T23:56:11.483Z,4.40
2022-10-28T23:58:39.583Z,4.10
